createdAt,value
2023-01-12T00:03:05.063Z,86
2023-01-12T00:05:06.614Z,86
2023-01-12T00:07:05.156Z,86
2023-01-12T00:09:06.527Z,87
2023-01-12T00:11:05.105Z,87
2023-01-12T00:13:05.181Z,87
2023-01-12T00:15:05.205Z,87
2023-01-12T00:17:05.153Z,87
2023-01-12T00:19:01.782Z,88
2023-01-12T00:21:05.164Z,88
2023-01-12T00:23:07.369Z,88
2023-01-12T00:25:12.038Z,88
2023-01-12T00:27:05.105Z,88
2023-01-12T00:29:06.988Z,89
2023-01-12T00:31:05.014Z,89
2023-01-12T00:33:05.184Z,89
2023-01-12T00:35:05.153Z,89
2023-01-12T00:37:05.074Z,89
2023-01-12T00:39:05.178Z,89
2023-01-12T00:41:06.485Z,89
2023-01-12T00:43:06.859Z,89
2023-01-12T00:45:05.171Z,89
2023-01-12T00:47:05.138Z,89
2023-01-12T00:49:11.859Z,89
2023-01-12T00:51:04.368Z,89
2023-01-12T00:53:07.629Z,89
2023-01-12T00:55:05.105Z,89
2023-01-12T00:57:08.394Z,89
2023-01-12T00:59:05.170Z,89
2023-01-12T01:01:07.533Z,89
2023-01-12T01:03:08.352Z,89
2023-01-12T01:07:02.257Z,89
2023-01-12T01:09:08.185Z,89
2023-01-12T01:11:05.556Z,90
2023-01-12T01:13:05.383Z,90
2023-01-12T01:15:07.045Z,90
2023-01-12T01:17:08.357Z,90
2023-01-12T01:19:08.148Z,90
2023-01-12T01:21:09.036Z,90
2023-01-12T01:23:06.060Z,90
2023-01-12T01:25:05.078Z,90
2023-01-12T01:27:11.319Z,90
2023-01-12T01:29:05.344Z,90
2023-01-12T01:31:07.647Z,90
2023-01-12T01:33:08.984Z,90
2023-01-12T01:35:07.489Z,90
2023-01-12T01:37:08.254Z,90
2023-01-12T01:39:02.444Z,90
2023-01-12T01:41:05.101Z,90
2023-01-12T01:43:06.178Z,90
2023-01-12T01:45:05.154Z,89
2023-01-12T01:47:05.099Z,90
2023-01-12T01:49:05.159Z,90
2023-01-12T01:51:05.177Z,89
2023-01-12T01:53:05.570Z,89
2023-01-12T01:55:05.457Z,89
2023-01-12T01:57:08.413Z,90
2023-01-12T01:59:09.533Z,90
2023-01-12T02:01:08.250Z,90
2023-01-12T02:03:05.861Z,89
2023-01-12T02:05:05.239Z,89
2023-01-12T02:07:05.241Z,89
2023-01-12T02:09:05.539Z,89
2023-01-12T02:11:05.191Z,89
2023-01-12T02:13:05.070Z,90
2023-01-12T02:15:10.068Z,90
2023-01-12T02:17:05.632Z,90
2023-01-12T02:19:05.404Z,90
2023-01-12T02:21:05.477Z,90
2023-01-12T02:23:06.621Z,90
2023-01-12T02:25:06.907Z,90
2023-01-12T02:27:05.152Z,90
2023-01-12T02:29:06.520Z,90
2023-01-12T02:31:05.383Z,90
2023-01-12T02:33:06.324Z,89
2023-01-12T02:35:05.227Z,89
2023-01-12T02:37:10.377Z,89
2023-01-12T02:39:08.913Z,89
2023-01-12T02:41:09.982Z,89
2023-01-12T02:43:05.406Z,88
2023-01-12T02:45:05.486Z,88
2023-01-12T02:47:05.183Z,88
2023-01-12T02:49:12.686Z,88
2023-01-12T02:51:05.421Z,88
2023-01-12T02:53:08.424Z,87
2023-01-12T02:55:08.276Z,87
2023-01-12T02:57:04.997Z,87
2023-01-12T02:59:03.817Z,87
2023-01-12T03:01:05.201Z,87
2023-01-12T03:03:10.713Z,87
2023-01-12T03:05:05.096Z,87
2023-01-12T03:07:08.275Z,87
2023-01-12T03:09:05.188Z,87
2023-01-12T03:11:05.118Z,87
2023-01-12T03:13:05.424Z,87
2023-01-12T03:15:03.735Z,87
2023-01-12T03:17:05.092Z,87
2023-01-12T03:19:02.877Z,87
2023-01-12T03:21:05.668Z,87
2023-01-12T03:23:06.457Z,88
2023-01-12T03:25:05.458Z,87
2023-01-12T03:27:07.326Z,88
2023-01-12T03:29:05.194Z,88
2023-01-12T03:31:05.192Z,88
2023-01-12T03:33:05.281Z,88
2023-01-12T03:35:05.141Z,88
2023-01-12T03:37:05.127Z,88
2023-01-12T03:39:05.175Z,88
2023-01-12T03:41:04.851Z,88
2023-01-12T03:43:05.129Z,88
2023-01-12T03:45:05.171Z,88
2023-01-12T03:47:06.773Z,88
2023-01-12T03:49:05.241Z,88
2023-01-12T03:51:06.541Z,88
2023-01-12T03:53:05.834Z,88
2023-01-12T03:55:05.188Z,88
2023-01-12T03:57:05.442Z,88
2023-01-12T03:59:08.305Z,88
2023-01-12T04:01:05.107Z,88
2023-01-12T04:03:06.646Z,87
2023-01-12T04:07:08.693Z,88
2023-01-12T04:09:04.984Z,88
2023-01-12T04:11:05.152Z,88
2023-01-12T04:13:06.855Z,88
2023-01-12T04:15:05.319Z,88
2023-01-12T04:17:02.997Z,88
2023-01-12T04:19:06.575Z,88
2023-01-12T04:21:02.751Z,88
2023-01-12T04:23:11.580Z,88
2023-01-12T04:27:05.168Z,88
2023-01-12T04:29:11.656Z,88
2023-01-12T04:31:05.091Z,87
2023-01-12T04:33:08.709Z,87
2023-01-12T04:35:01.914Z,87
2023-01-12T04:37:04.672Z,87
2023-01-12T04:39:05.232Z,87
2023-01-12T04:41:06.219Z,87
2023-01-12T04:43:07.262Z,87
2023-01-12T04:45:05.155Z,87
2023-01-12T04:47:05.158Z,87
2023-01-12T04:51:05.355Z,86
2023-01-12T04:53:05.163Z,87
2023-01-12T04:55:05.126Z,86
2023-01-12T04:57:05.181Z,86
2023-01-12T04:59:06.649Z,86
2023-01-12T05:01:05.499Z,87
2023-01-12T05:05:05.193Z,86
2023-01-12T05:07:05.182Z,87
2023-01-12T05:09:06.791Z,87
2023-01-12T05:11:05.144Z,87
2023-01-12T05:13:06.028Z,87
2023-01-12T05:15:05.491Z,87
2023-01-12T05:17:08.188Z,87
2023-01-12T05:19:07.241Z,87
2023-01-12T05:21:08.257Z,87
2023-01-12T05:23:05.164Z,87
2023-01-12T05:25:05.236Z,87
2023-01-12T05:27:05.196Z,87
2023-01-12T05:29:05.894Z,87
2023-01-12T05:31:05.099Z,87
2023-01-12T05:33:05.115Z,87
2023-01-12T05:35:05.234Z,87
2023-01-12T05:37:05.160Z,87
2023-01-12T05:39:08.208Z,87
2023-01-12T05:41:08.596Z,87
2023-01-12T05:43:08.439Z,86
2023-01-12T05:45:05.159Z,87
2023-01-12T05:47:07.105Z,86
2023-01-12T05:49:06.323Z,86
2023-01-12T05:51:05.181Z,86
2023-01-12T05:53:05.783Z,86
2023-01-12T05:55:02.261Z,86
2023-01-12T05:57:05.102Z,86
2023-01-12T05:59:05.250Z,86
2023-01-12T06:01:02.360Z,86
2023-01-12T06:03:05.179Z,86
2023-01-12T06:05:05.534Z,86
2023-01-12T06:07:05.249Z,86
2023-01-12T06:09:05.137Z,86
2023-01-12T06:11:08.391Z,86
2023-01-12T06:13:05.188Z,85
2023-01-12T06:15:05.138Z,86
2023-01-12T06:17:08.581Z,85
2023-01-12T06:19:08.235Z,85
2023-01-12T06:21:05.812Z,85
2023-01-12T06:23:06.855Z,85
2023-01-12T06:25:06.431Z,85
2023-01-12T06:27:06.202Z,84
2023-01-12T06:29:05.172Z,84
2023-01-12T06:31:05.158Z,84
2023-01-12T06:33:05.102Z,84
2023-01-12T06:35:14.303Z,84
2023-01-12T06:37:05.230Z,84
2023-01-12T06:39:07.598Z,84
2023-01-12T06:41:06.553Z,84
2023-01-12T06:43:06.549Z,84
2023-01-12T06:45:08.154Z,84
2023-01-12T06:47:08.167Z,84
2023-01-12T06:49:11.397Z,84
2023-01-12T06:51:05.805Z,84
2023-01-12T06:53:06.242Z,84
2023-01-12T06:55:05.500Z,84
2023-01-12T06:57:11.568Z,83
2023-01-12T06:59:05.159Z,83
2023-01-12T07:01:05.250Z,84
2023-01-12T07:03:09.995Z,83
2023-01-12T07:05:05.232Z,83
2023-01-12T07:07:03.506Z,83
2023-01-12T07:09:05.601Z,83
2023-01-12T07:11:05.073Z,83
2023-01-12T07:13:05.300Z,83
2023-01-12T07:15:05.390Z,83
2023-01-12T07:17:08.285Z,83
2023-01-12T07:19:05.923Z,83
2023-01-12T07:21:05.232Z,83
2023-01-12T07:23:06.118Z,82
2023-01-12T07:25:05.128Z,82
2023-01-12T07:27:08.238Z,82
2023-01-12T07:29:05.100Z,83
2023-01-12T07:31:11.506Z,82
2023-01-12T07:33:07.747Z,82
2023-01-12T07:35:05.235Z,82
2023-01-12T07:37:05.150Z,82
2023-01-12T07:39:08.344Z,82
2023-01-12T07:43:05.369Z,82
2023-01-12T07:45:06.818Z,81
2023-01-12T07:47:08.271Z,82
2023-01-12T07:49:05.141Z,82
2023-01-12T07:51:05.299Z,81
2023-01-12T07:53:07.713Z,81
2023-01-12T07:55:05.222Z,81
2023-01-12T07:57:05.114Z,81
2023-01-12T07:59:05.092Z,81
2023-01-12T08:01:05.871Z,80
2023-01-12T08:03:08.399Z,81
2023-01-12T08:05:06.370Z,81
2023-01-12T08:07:08.209Z,81
2023-01-12T08:09:05.161Z,81
2023-01-12T08:11:05.191Z,81
2023-01-12T08:13:06.845Z,81
2023-01-12T08:15:05.101Z,80
2023-01-12T08:17:05.131Z,81
2023-01-12T08:19:05.155Z,81
2023-01-12T08:21:05.160Z,81
2023-01-12T08:23:05.235Z,80
2023-01-12T08:25:05.178Z,80
2023-01-12T08:27:08.276Z,80
2023-01-12T08:29:05.136Z,80
2023-01-12T08:31:05.270Z,80
2023-01-12T08:33:07.338Z,80
2023-01-12T08:35:02.272Z,80
2023-01-12T08:37:05.230Z,80
2023-01-12T08:39:05.186Z,80
2023-01-12T08:41:05.088Z,80
2023-01-12T08:43:05.857Z,80
2023-01-12T08:45:08.404Z,80
2023-01-12T08:47:11.831Z,80
2023-01-12T08:51:05.279Z,80
2023-01-12T08:53:09.028Z,80
2023-01-12T08:55:05.145Z,80
2023-01-12T08:57:05.120Z,79
2023-01-12T08:59:02.253Z,79
2023-01-12T09:01:05.252Z,79
2023-01-12T09:03:05.575Z,79
2023-01-12T09:05:05.153Z,79
2023-01-12T09:07:06.687Z,80
2023-01-12T09:09:05.177Z,80
2023-01-12T09:11:07.252Z,80
2023-01-12T09:13:06.967Z,80
2023-01-12T09:15:05.478Z,79
2023-01-12T09:17:05.372Z,79
2023-01-12T09:19:05.167Z,79
2023-01-12T09:21:05.285Z,79
2023-01-12T09:23:04.529Z,79
2023-01-12T09:25:06.469Z,79
2023-01-12T09:27:03.668Z,78
2023-01-12T09:29:05.138Z,78
2023-01-12T09:31:11.180Z,78
2023-01-12T09:33:05.067Z,78
2023-01-12T09:35:06.691Z,78
2023-01-12T09:37:08.307Z,78
2023-01-12T09:39:09.763Z,78
2023-01-12T09:41:05.044Z,78
2023-01-12T09:43:05.163Z,78
2023-01-12T09:45:05.086Z,78
2023-01-12T09:47:05.348Z,77
2023-01-12T09:49:05.134Z,76
2023-01-12T09:51:08.474Z,76
2023-01-12T09:53:05.171Z,76
2023-01-12T09:55:06.947Z,75
2023-01-12T09:57:07.132Z,75
2023-01-12T09:59:05.255Z,76
2023-01-12T10:01:12.463Z,76
2023-01-12T10:03:08.262Z,77
2023-01-12T10:05:07.262Z,77
2023-01-12T10:07:05.168Z,76
2023-01-12T10:09:08.399Z,77
2023-01-12T10:11:07.356Z,77
2023-01-12T10:13:05.131Z,77
2023-01-12T10:15:06.671Z,77
2023-01-12T10:17:06.813Z,76
2023-01-12T10:19:09.034Z,76
2023-01-12T10:21:11.352Z,77
2023-01-12T10:23:08.214Z,77
2023-01-12T10:25:08.492Z,77
2023-01-12T10:27:05.120Z,77
2023-01-12T10:29:07.362Z,77
2023-01-12T10:31:08.097Z,77
2023-01-12T10:33:05.098Z,76
2023-01-12T10:35:05.028Z,76
2023-01-12T10:39:05.152Z,76
2023-01-12T10:41:06.843Z,76
2023-01-12T10:43:12.292Z,76
2023-01-12T10:45:08.325Z,77
2023-01-12T10:47:05.119Z,77
2023-01-12T10:51:05.143Z,77
2023-01-12T10:53:05.152Z,76
2023-01-12T10:55:07.735Z,77
2023-01-12T10:57:05.064Z,78
2023-01-12T10:59:05.155Z,76
2023-01-12T11:01:05.214Z,76
2023-01-12T11:03:05.275Z,76
2023-01-12T11:05:05.197Z,76
2023-01-12T11:07:05.550Z,76
2023-01-12T11:09:04.882Z,76
2023-01-12T11:11:08.059Z,75
2023-01-12T11:13:05.093Z,75
2023-01-12T11:15:05.299Z,75
2023-01-12T11:17:08.363Z,75
2023-01-12T11:19:05.429Z,76
2023-01-12T11:21:05.121Z,75
2023-01-12T11:23:05.294Z,75
2023-01-12T11:25:08.625Z,76
2023-01-12T11:27:07.210Z,75
2023-01-12T11:29:05.191Z,76
2023-01-12T11:31:05.268Z,76
2023-01-12T11:33:05.463Z,75
2023-01-12T11:35:08.245Z,76
2023-01-12T11:37:05.130Z,76
2023-01-12T11:39:05.162Z,76
2023-01-12T11:41:04.922Z,76
2023-01-12T11:43:05.124Z,76
2023-01-12T11:45:05.137Z,75
2023-01-12T11:47:05.495Z,75
2023-01-12T11:49:05.181Z,75
2023-01-12T11:51:08.260Z,76
2023-01-12T11:53:05.197Z,75
2023-01-12T11:55:08.378Z,76
2023-01-12T11:57:08.755Z,76
2023-01-12T11:59:08.094Z,76
2023-01-12T12:01:05.158Z,75
2023-01-12T12:03:05.184Z,76
2023-01-12T12:05:05.164Z,76
2023-01-12T12:07:06.970Z,77
2023-01-12T12:09:06.795Z,76
2023-01-12T12:11:05.127Z,76
2023-01-12T12:13:07.837Z,76
2023-01-12T12:15:07.117Z,76
2023-01-12T12:17:05.227Z,76
2023-01-12T12:19:09.223Z,77
2023-01-12T12:21:04.762Z,76
2023-01-12T12:23:04.901Z,78
2023-01-12T12:25:08.049Z,77
2023-01-12T12:27:07.820Z,78
2023-01-12T12:29:05.242Z,78
2023-01-12T12:31:05.181Z,80
2023-01-12T12:33:04.754Z,77
2023-01-12T12:37:05.256Z,78
2023-01-12T12:39:05.208Z,79
2023-01-12T12:41:05.113Z,78
2023-01-12T12:45:05.526Z,76
2023-01-12T12:47:11.292Z,76
2023-01-12T12:49:04.905Z,77
2023-01-12T12:51:04.646Z,77
2023-01-12T12:53:08.103Z,78
2023-01-12T12:55:05.725Z,79
2023-01-12T12:57:05.916Z,79
2023-01-12T12:59:08.667Z,76
2023-01-12T13:01:05.203Z,77
2023-01-12T13:03:05.195Z,76
2023-01-12T13:05:05.491Z,77
2023-01-12T13:07:05.516Z,78
2023-01-12T13:09:02.481Z,75
2023-01-12T13:11:06.355Z,79
2023-01-12T13:13:03.969Z,79
2023-01-12T13:15:08.300Z,77
2023-01-12T13:17:06.851Z,80
2023-01-12T13:19:05.175Z,78
2023-01-12T13:21:05.244Z,78
2023-01-12T13:23:06.497Z,77
2023-01-12T13:25:04.527Z,77
2023-01-12T13:27:05.142Z,77
2023-01-12T13:29:11.299Z,77
2023-01-12T13:31:10.388Z,78
2023-01-12T13:33:05.080Z,77
2023-01-12T13:35:05.040Z,76
2023-01-12T13:37:05.497Z,79
2023-01-12T13:39:06.640Z,76
2023-01-12T13:41:07.907Z,76
2023-01-12T13:43:09.884Z,77
2023-01-12T13:45:04.696Z,76
2023-01-12T13:47:06.863Z,76
2023-01-12T13:49:08.065Z,77
2023-01-12T13:51:05.163Z,76
2023-01-12T13:53:08.317Z,79
2023-01-12T13:55:05.253Z,76
2023-01-12T13:57:05.022Z,78
2023-01-12T13:59:05.159Z,78
2023-01-12T14:01:08.343Z,77
2023-01-12T14:03:08.008Z,78
2023-01-12T14:05:05.123Z,78
2023-01-12T14:07:08.242Z,78
2023-01-12T14:09:05.187Z,78
2023-01-12T14:11:05.738Z,76
2023-01-12T14:13:05.231Z,79
2023-01-12T14:15:06.966Z,77
2023-01-12T14:17:05.971Z,78
2023-01-12T14:19:05.468Z,77
2023-01-12T14:21:07.437Z,78
2023-01-12T14:23:05.187Z,77
2023-01-12T14:25:05.146Z,78
2023-01-12T14:27:05.160Z,77
2023-01-12T14:29:03.874Z,77
2023-01-12T14:31:05.293Z,77
2023-01-12T14:33:06.417Z,77
2023-01-12T14:35:05.587Z,77
2023-01-12T14:37:08.256Z,77
2023-01-12T14:39:05.183Z,77
2023-01-12T14:41:05.207Z,77
2023-01-12T14:43:05.138Z,79
2023-01-12T14:45:05.597Z,78
2023-01-12T14:47:06.610Z,77
2023-01-12T14:49:08.316Z,78
2023-01-12T14:51:07.856Z,78
2023-01-12T14:53:04.940Z,77
2023-01-12T14:55:06.193Z,77
2023-01-12T14:57:06.356Z,79
2023-01-12T14:59:08.035Z,77
2023-01-12T15:01:05.212Z,78
2023-01-12T15:03:05.155Z,77
2023-01-12T15:05:05.014Z,77
2023-01-12T15:07:10.998Z,77
2023-01-12T15:09:04.936Z,78
2023-01-12T15:11:05.122Z,77
2023-01-12T15:13:05.139Z,78
2023-01-12T15:15:05.162Z,77
2023-01-12T15:17:02.852Z,77
2023-01-12T15:19:05.169Z,78
2023-01-12T15:21:06.382Z,78
2023-01-12T15:23:06.767Z,77
2023-01-12T15:25:08.381Z,78
2023-01-12T15:27:06.585Z,77
2023-01-12T15:29:08.288Z,78
2023-01-12T15:31:05.133Z,78
2023-01-12T15:33:05.192Z,78
2023-01-12T15:35:04.937Z,78
2023-01-12T15:37:05.182Z,78
2023-01-12T15:39:08.301Z,78
2023-01-12T15:41:05.120Z,78
2023-01-12T15:43:05.132Z,78
2023-01-12T15:45:05.163Z,78
2023-01-12T15:47:05.261Z,78
2023-01-12T15:49:05.281Z,78
2023-01-12T15:51:08.436Z,78
2023-01-12T15:53:08.320Z,78
2023-01-12T15:55:05.168Z,78
2023-01-12T15:57:05.124Z,78
2023-01-12T15:59:05.270Z,78
2023-01-12T16:01:05.191Z,78
2023-01-12T16:03:05.196Z,78
2023-01-12T16:05:05.216Z,78
2023-01-12T16:07:08.306Z,79
2023-01-12T16:09:05.604Z,78
2023-01-12T16:11:08.267Z,78
2023-01-12T16:15:06.193Z,79
2023-01-12T16:17:08.317Z,79
2023-01-12T16:19:08.227Z,79
2023-01-12T16:21:06.751Z,79
2023-01-12T16:23:04.352Z,79
2023-01-12T16:25:05.248Z,79
2023-01-12T16:27:08.358Z,79
2023-01-12T16:29:08.331Z,79
2023-01-12T16:31:05.168Z,79
2023-01-12T16:33:05.240Z,79
2023-01-12T16:35:04.779Z,79
2023-01-12T16:37:05.665Z,79
2023-01-12T16:39:05.256Z,79
2023-01-12T16:41:07.262Z,79
2023-01-12T16:43:06.926Z,78
2023-01-12T16:45:05.216Z,78
2023-01-12T16:47:05.348Z,79
2023-01-12T16:49:08.718Z,79
2023-01-12T16:51:07.870Z,79
2023-01-12T16:53:05.155Z,79
2023-01-12T16:55:05.169Z,79
2023-01-12T16:57:05.543Z,79
2023-01-12T16:59:11.404Z,79
2023-01-12T17:01:05.310Z,79
2023-01-12T17:03:07.976Z,79
2023-01-12T17:05:05.115Z,79
2023-01-12T17:07:05.164Z,79
2023-01-12T17:09:06.560Z,79
2023-01-12T17:11:08.204Z,79
2023-01-12T17:13:05.163Z,79
2023-01-12T17:15:08.337Z,79
2023-01-12T17:17:05.317Z,79
2023-01-12T17:19:07.156Z,79
2023-01-12T17:21:05.214Z,79
2023-01-12T17:23:08.275Z,79
2023-01-12T17:25:08.360Z,79
2023-01-12T17:27:05.150Z,80
2023-01-12T17:29:05.231Z,79
2023-01-12T17:31:07.161Z,79
2023-01-12T17:33:05.849Z,79
2023-01-12T17:35:05.580Z,80
2023-01-12T17:37:05.151Z,79
2023-01-12T17:39:05.513Z,80
2023-01-12T17:41:05.792Z,79
2023-01-12T17:43:06.932Z,80
2023-01-12T17:45:06.684Z,80
2023-01-12T17:47:05.535Z,79
2023-01-12T17:49:08.401Z,80
2023-01-12T17:51:05.202Z,80
2023-01-12T17:53:05.331Z,80
2023-01-12T17:55:08.179Z,80
2023-01-12T17:57:08.147Z,80
2023-01-12T17:59:05.253Z,80
2023-01-12T18:01:05.672Z,80
2023-01-12T18:03:08.421Z,80
2023-01-12T18:05:05.679Z,80
2023-01-12T18:07:05.064Z,80
2023-01-12T18:09:04.786Z,80
2023-01-12T18:11:04.908Z,80
2023-01-12T18:13:04.951Z,80
2023-01-12T18:15:08.348Z,80
2023-01-12T18:17:08.426Z,80
2023-01-12T18:19:08.420Z,80
2023-01-12T18:21:08.340Z,80
2023-01-12T18:23:05.119Z,79
2023-01-12T18:25:05.514Z,80
2023-01-12T18:27:08.222Z,80
2023-01-12T18:29:07.071Z,80
2023-01-12T18:31:13.883Z,79
2023-01-12T18:33:11.149Z,79
2023-01-12T18:35:05.130Z,80
2023-01-12T18:37:05.165Z,80
2023-01-12T18:39:05.187Z,80
2023-01-12T18:41:06.949Z,80
2023-01-12T18:43:11.286Z,79
2023-01-12T18:45:05.199Z,80
2023-01-12T18:47:08.729Z,80
2023-01-12T18:49:05.240Z,80
2023-01-12T18:51:04.670Z,80
2023-01-12T18:53:05.453Z,80
2023-01-12T18:55:05.163Z,79
2023-01-12T18:57:08.339Z,80
2023-01-12T18:59:11.535Z,80
2023-01-12T19:01:08.416Z,80
2023-01-12T19:03:05.316Z,80
2023-01-12T19:05:08.192Z,80
2023-01-12T19:07:10.342Z,80
2023-01-12T19:09:11.807Z,81
2023-01-12T19:11:06.807Z,80
2023-01-12T19:13:05.188Z,80
2023-01-12T19:15:05.177Z,81
2023-01-12T19:17:05.244Z,81
2023-01-12T19:19:03.154Z,80
2023-01-12T19:21:08.279Z,80
2023-01-12T19:23:05.218Z,80
2023-01-12T19:25:05.228Z,80
2023-01-12T19:27:05.166Z,81
2023-01-12T19:29:08.574Z,81
2023-01-12T19:31:06.691Z,81
2023-01-12T19:33:05.428Z,81
2023-01-12T19:35:11.146Z,81
2023-01-12T19:37:08.333Z,81
2023-01-12T19:39:05.200Z,81
2023-01-12T19:41:06.454Z,81
2023-01-12T19:43:08.336Z,81
2023-01-12T19:47:05.261Z,81
2023-01-12T19:49:06.819Z,81
2023-01-12T19:51:05.483Z,81
2023-01-12T19:53:05.183Z,81
2023-01-12T19:55:07.791Z,81
2023-01-12T19:57:05.244Z,81
2023-01-12T19:59:05.485Z,81
2023-01-12T20:01:05.289Z,81
2023-01-12T20:03:05.143Z,81
2023-01-12T20:05:05.387Z,81
2023-01-12T20:07:08.741Z,81
2023-01-12T20:09:05.824Z,81
2023-01-12T20:13:08.285Z,81
2023-01-12T20:15:07.876Z,81
2023-01-12T20:17:05.791Z,82
2023-01-12T20:19:01.934Z,81
2023-01-12T20:21:05.316Z,81
2023-01-12T20:23:05.124Z,81
2023-01-12T20:25:05.477Z,81
2023-01-12T20:27:06.848Z,81
2023-01-12T20:29:04.719Z,81
2023-01-12T20:31:05.181Z,81
2023-01-12T20:33:05.462Z,82
2023-01-12T20:37:08.334Z,81
2023-01-12T20:39:04.764Z,82
2023-01-12T20:41:08.308Z,82
2023-01-12T20:43:05.159Z,82
2023-01-12T20:45:05.191Z,81
2023-01-12T20:47:05.472Z,82
2023-01-12T20:49:05.267Z,82
2023-01-12T20:51:05.303Z,82
2023-01-12T20:53:05.254Z,82
2023-01-12T20:55:05.198Z,82
2023-01-12T20:57:08.380Z,82
2023-01-12T20:59:05.511Z,82
2023-01-12T21:03:05.200Z,82
2023-01-12T21:05:08.344Z,82
2023-01-12T21:07:05.222Z,82
2023-01-12T21:09:05.241Z,82
2023-01-12T21:11:06.589Z,82
2023-01-12T21:13:02.689Z,82
2023-01-12T21:15:05.233Z,82
2023-01-12T21:17:06.815Z,82
2023-01-12T21:19:08.275Z,82
2023-01-12T21:21:06.774Z,82
2023-01-12T21:23:05.166Z,82
2023-01-12T21:25:08.310Z,82
2023-01-12T21:27:06.805Z,82
2023-01-12T21:29:08.325Z,82
2023-01-12T21:31:05.240Z,82
2023-01-12T21:35:05.198Z,82
2023-01-12T21:37:05.249Z,82
2023-01-12T21:39:05.251Z,82
2023-01-12T21:41:08.440Z,82
2023-01-12T21:43:05.225Z,82
2023-01-12T21:45:08.373Z,82
2023-01-12T21:49:08.324Z,82
2023-01-12T21:51:05.188Z,82
2023-01-12T21:53:05.182Z,82
2023-01-12T21:55:05.239Z,82
2023-01-12T21:57:05.389Z,81
2023-01-12T21:59:05.216Z,81
2023-01-12T22:01:05.209Z,82
2023-01-12T22:03:05.082Z,82
2023-01-12T22:05:05.264Z,82
2023-01-12T22:09:05.233Z,82
2023-01-12T22:11:07.734Z,82
2023-01-12T22:13:04.817Z,82
2023-01-12T22:15:05.553Z,81
2023-01-12T22:17:08.367Z,82
2023-01-12T22:19:04.777Z,82
2023-01-12T22:21:08.620Z,82
2023-01-12T22:23:05.214Z,82
2023-01-12T22:25:05.230Z,82
2023-01-12T22:27:07.784Z,81
2023-01-12T22:29:08.457Z,81
2023-01-12T22:33:08.437Z,82
2023-01-12T22:35:08.101Z,82
2023-01-12T22:37:05.117Z,82
2023-01-12T22:39:05.202Z,82
2023-01-12T22:41:07.074Z,82
2023-01-12T22:43:05.319Z,82
2023-01-12T22:45:08.385Z,82
2023-01-12T22:47:05.300Z,82
2023-01-12T22:49:05.376Z,82
2023-01-12T22:51:05.557Z,82
2023-01-12T22:53:11.235Z,82
2023-01-12T22:55:05.008Z,82
2023-01-12T22:57:05.215Z,82
2023-01-12T22:59:05.141Z,82
2023-01-12T23:01:02.952Z,82
2023-01-12T23:03:05.339Z,82
2023-01-12T23:05:05.268Z,81
2023-01-12T23:07:05.668Z,81
2023-01-12T23:09:04.793Z,81
2023-01-12T23:11:08.225Z,82
2023-01-12T23:13:05.188Z,81
2023-01-12T23:15:04.780Z,82
2023-01-12T23:17:05.515Z,81
2023-01-12T23:19:05.536Z,81
2023-01-12T23:21:05.203Z,82
2023-01-12T23:23:06.403Z,81
2023-01-12T23:25:05.214Z,82
2023-01-12T23:27:08.189Z,82
2023-01-12T23:29:05.277Z,82
2023-01-12T23:31:05.302Z,82
2023-01-12T23:33:05.255Z,82
2023-01-12T23:35:05.227Z,81
2023-01-12T23:37:05.296Z,81
2023-01-12T23:39:08.117Z,81
2023-01-12T23:43:06.096Z,81
2023-01-12T23:45:06.290Z,81
2023-01-12T23:47:07.194Z,81
2023-01-12T23:49:05.982Z,81
2023-01-12T23:51:05.220Z,81
2023-01-12T23:53:05.285Z,81
2023-01-12T23:55:05.139Z,81
2023-01-12T23:57:08.353Z,81
2023-01-12T23:59:05.197Z,81
